Time,TemperatureF,DewpointF,PressureIn,WindDirection,WindDirectionDegrees,WindSpeedMPH,WindSpeedGustMPH,Humidity,HourlyPrecipIn,Conditions,Clouds,dailyrainin,SolarRadiationWatts/m^2,SoftwareType,DateUTC
2013-02-19 00:01:00,59.0,58.0,-100.00,NNE,24,0.0,0.0,98,0.00,,,0.03,0.000000,,2013-02-19 10:01:00,
2013-02-19 00:11:00,59.0,58.0,-100.00,NNE,24,0.0,0.0,98,0.00,,,0.03,0.000000,,2013-02-19 10:11:00,
2013-02-19 00:21:00,59.0,58.0,-100.00,NNE,24,0.0,0.0,98,0.00,,,0.03,0.000000,,2013-02-19 10:21:00,
2013-02-19 00:31:00,59.0,58.0,-100.00,NNE,24,0.0,0.0,98,0.00,,,0.03,0.000000,,2013-02-19 10:31:00,
2013-02-19 01:01:00,59.0,58.0,-100.00,NNE,19,0.0,0.0,97,0.01,,,0.04,0.000000,,2013-02-19 11:01:00,
2013-02-19 01:11:00,59.0,58.0,-100.00,NNE,19,0.0,0.0,97,0.01,,,0.04,0.000000,,2013-02-19 11:11:00,
2013-02-19 01:21:00,59.0,58.0,-100.00,NNE,19,0.0,0.0,97,0.01,,,0.04,0.000000,,2013-02-19 11:21:00,
2013-02-19 01:31:00,59.0,58.0,-100.00,NNE,19,0.0,0.0,97,0.01,,,0.04,0.000000,,2013-02-19 11:31:00,
2013-02-19 02:01:00,60.0,59.0,-100.00,NNE,20,0.0,0.0,98,0.03,,,0.07,0.000000,,2013-02-19 12:01:00,
2013-02-19 02:12:00,60.0,59.0,-100.00,NNE,20,0.0,0.0,98,0.03,,,0.07,0.000000,,2013-02-19 12:12:00,
2013-02-19 02:21:00,60.0,59.0,-100.00,NNE,20,0.0,0.0,98,0.03,,,0.07,0.000000,,2013-02-19 12:21:00,
2013-02-19 02:32:00,60.0,59.0,-100.00,NNE,20,0.0,0.0,98,0.03,,,0.07,0.000000,,2013-02-19 12:32:00,
2013-02-19 03:02:00,59.0,59.0,-100.00,NNE,15,0.0,0.0,99,0.00,,,0.07,0.000000,,2013-02-19 13:02:00,
2013-02-19 03:11:00,59.0,59.0,-100.00,NNE,15,0.0,0.0,99,0.00,,,0.07,0.000000,,2013-02-19 13:11:00,
2013-02-19 03:22:00,59.0,59.0,-100.00,NNE,15,0.0,0.0,99,0.00,,,0.07,0.000000,,2013-02-19 13:22:00,
2013-02-19 03:31:00,59.0,59.0,-100.00,NNE,15,0.0,0.0,99,0.00,,,0.07,0.000000,,2013-02-19 13:31:00,
2013-02-19 04:01:00,58.0,58.0,-100.00,NNE,21,0.0,0.0,99,0.00,,,0.07,0.000000,,2013-02-19 14:01:00,
2013-02-19 04:11:00,58.0,58.0,-100.00,NNE,21,0.0,0.0,99,0.00,,,0.07,0.000000,,2013-02-19 14:11:00,
2013-02-19 04:21:00,58.0,58.0,-100.00,NNE,21,0.0,0.0,99,0.00,,,0.07,0.000000,,2013-02-19 14:21:00,
2013-02-19 04:32:00,58.0,58.0,-100.00,NNE,21,0.0,0.0,99,0.00,,,0.07,0.000000,,2013-02-19 14:32:00,
2013-02-19 05:01:00,59.0,59.0,-100.00,NNE,13,0.0,0.0,99,0.00,,,0.07,0.000000,,2013-02-19 15:01:00,
2013-02-19 05:11:00,59.0,59.0,-100.00,NNE,13,0.0,0.0,99,0.00,,,0.07,0.000000,,2013-02-19 15:11:00,
2013-02-19 05:21:00,59.0,59.0,-100.00,NNE,13,0.0,0.0,99,0.00,,,0.07,0.000000,,2013-02-19 15:21:00,
2013-02-19 05:31:00,59.0,59.0,-100.00,NNE,13,0.0,0.0,99,0.00,,,0.07,0.000000,,2013-02-19 15:31:00,
2013-02-19 06:01:00,59.0,55.0,-100.00,NNE,23,0.0,0.0,87,0.00,,,0.07,0.000000,,2013-02-19 16:01:00,
2013-02-19 06:11:00,59.0,55.0,-100.00,NNE,23,0.0,0.0,87,0.00,,,0.07,0.000000,,2013-02-19 16:11:00,
2013-02-19 06:21:00,59.0,55.0,-100.00,NNE,23,0.0,0.0,87,0.00,,,0.07,0.000000,,2013-02-19 16:21:00,
2013-02-19 06:31:00,59.0,55.0,-100.00,NNE,23,0.0,0.0,87,0.00,,,0.07,0.000000,,2013-02-19 16:31:00,
2013-02-19 07:01:00,59.0,53.0,-100.00,NNE,22,0.0,0.0,81,0.00,,,0.07,0.000000,,2013-02-19 17:01:00,
2013-02-19 07:11:00,59.0,53.0,-100.00,NNE,22,0.0,0.0,81,0.00,,,0.07,0.000000,,2013-02-19 17:11:00,
2013-02-19 07:21:00,59.0,53.0,-100.00,NNE,22,0.0,0.0,81,0.00,,,0.07,0.000000,,2013-02-19 17:21:00,
2013-02-19 07:31:00,59.0,53.0,-100.00,NNE,22,0.0,0.0,81,0.00,,,0.07,0.000000,,2013-02-19 17:31:00,
2013-02-19 08:01:00,59.0,54.0,-100.00,NNE,29,0.0,0.0,83,0.00,,,0.07,0.000000,,2013-02-19 18:01:00,
2013-02-19 08:11:00,59.0,54.0,-100.00,NNE,29,0.0,0.0,83,0.00,,,0.07,0.000000,,2013-02-19 18:11:00,
2013-02-19 08:21:00,59.0,54.0,-100.00,NNE,29,0.0,0.0,83,0.00,,,0.07,0.000000,,2013-02-19 18:21:00,
2013-02-19 08:31:00,59.0,54.0,-100.00,NNE,29,0.0,0.0,83,0.00,,,0.07,0.000000,,2013-02-19 18:31:00,
2013-02-19 09:01:00,59.0,55.0,-100.00,NNE,20,0.0,0.0,87,0.00,,,0.07,0.000000,,2013-02-19 19:01:00,
2013-02-19 09:11:00,59.0,55.0,-100.00,NNE,20,0.0,0.0,87,0.00,,,0.07,0.000000,,2013-02-19 19:11:00,
2013-02-19 09:21:00,59.0,55.0,-100.00,NNE,20,0.0,0.0,87,0.00,,,0.07,0.000000,,2013-02-19 19:21:00,
2013-02-19 09:31:00,59.0,55.0,-100.00,NNE,20,0.0,0.0,87,0.00,,,0.07,0.000000,,2013-02-19 19:31:00,
2013-02-19 10:01:00,61.0,57.0,-100.00,NNE,19,0.0,0.0,88,0.00,,,0.07,0.000000,,2013-02-19 20:01:00,
2013-02-19 10:11:00,61.0,57.0,-100.00,NNE,19,0.0,0.0,88,0.00,,,0.07,0.000000,,2013-02-19 20:11:00,
2013-02-19 10:21:00,61.0,57.0,-100.00,NNE,19,0.0,0.0,88,0.00,,,0.07,0.000000,,2013-02-19 20:21:00,
2013-02-19 10:31:00,61.0,57.0,-100.00,NNE,19,0.0,0.0,88,0.00,,,0.07,0.000000,,2013-02-19 20:31:00,
2013-02-19 11:01:00,60.0,56.0,-100.00,NNE,22,0.0,0.0,86,0.00,,,0.07,0.000000,,2013-02-19 21:01:00,
2013-02-19 11:11:00,60.0,56.0,-100.00,NNE,22,0.0,0.0,86,0.00,,,0.07,0.000000,,2013-02-19 21:11:00,
2013-02-19 11:21:00,60.0,56.0,-100.00,NNE,22,0.0,0.0,86,0.00,,,0.07,0.000000,,2013-02-19 21:21:00,
2013-02-19 11:31:00,60.0,56.0,-100.00,NNE,22,0.0,0.0,86,0.00,,,0.07,0.000000,,2013-02-19 21:31:00,
2013-02-19 12:02:00,59.0,54.0,-100.00,NNE,21,0.0,0.0,84,0.02,,,0.09,0.000000,,2013-02-19 22:02:00,
2013-02-19 12:11:00,59.0,54.0,-100.00,NNE,21,0.0,0.0,84,0.02,,,0.09,0.000000,,2013-02-19 22:11:00,
2013-02-19 12:21:00,59.0,54.0,-100.00,NNE,21,0.0,0.0,84,0.02,,,0.09,0.000000,,2013-02-19 22:21:00,
2013-02-19 12:31:00,59.0,54.0,-100.00,NNE,21,0.0,0.0,84,0.02,,,0.09,0.000000,,2013-02-19 22:31:00,
2013-02-19 13:01:00,58.0,57.0,-100.00,NNE,31,0.0,0.0,98,0.27,,,0.36,0.000000,,2013-02-19 23:01:00,
2013-02-19 13:11:00,58.0,57.0,-100.00,NNE,31,0.0,0.0,98,0.27,,,0.36,0.000000,,2013-02-19 23:11:00,
2013-02-19 13:21:00,58.0,57.0,-100.00,NNE,31,0.0,0.0,98,0.27,,,0.36,0.000000,,2013-02-19 23:21:00,
2013-02-19 13:31:00,58.0,57.0,-100.00,NNE,31,0.0,0.0,98,0.27,,,0.36,0.000000,,2013-02-19 23:31:00,
2013-02-19 14:01:00,59.0,58.0,-100.00,NNE,25,0.0,0.0,98,0.01,,,0.37,0.000000,,2013-02-20 00:01:00,
2013-02-19 14:11:00,59.0,58.0,-100.00,NNE,25,0.0,0.0,98,0.01,,,0.37,0.000000,,2013-02-20 00:11:00,
2013-02-19 14:21:00,59.0,58.0,-100.00,NNE,25,0.0,0.0,98,0.01,,,0.37,0.000000,,2013-02-20 00:21:00,
2013-02-19 14:31:00,59.0,58.0,-100.00,NNE,25,0.0,0.0,98,0.01,,,0.37,0.000000,,2013-02-20 00:31:00,
2013-02-19 15:02:00,59.0,59.0,-100.00,NNE,19,0.0,0.0,99,0.13,,,0.49,0.000000,,2013-02-20 01:02:00,
2013-02-19 15:11:00,59.0,59.0,-100.00,NNE,19,0.0,0.0,99,0.13,,,0.49,0.000000,,2013-02-20 01:11:00,
2013-02-19 15:21:00,59.0,59.0,-100.00,NNE,19,0.0,0.0,99,0.13,,,0.49,0.000000,,2013-02-20 01:21:00,
2013-02-19 15:31:00,59.0,59.0,-100.00,NNE,19,0.0,0.0,99,0.13,,,0.49,0.000000,,2013-02-20 01:31:00,
2013-02-19 16:01:00,60.0,59.0,-100.00,NNE,20,0.0,0.0,96,0.00,,,0.49,0.000000,,2013-02-20 02:01:00,
2013-02-19 16:11:00,60.0,59.0,-100.00,NNE,20,0.0,0.0,96,0.00,,,0.49,0.000000,,2013-02-20 02:11:00,
2013-02-19 16:21:00,60.0,59.0,-100.00,NNE,20,0.0,0.0,96,0.00,,,0.49,0.000000,,2013-02-20 02:21:00,
2013-02-19 16:31:00,60.0,59.0,-100.00,NNE,20,0.0,0.0,96,0.00,,,0.49,0.000000,,2013-02-20 02:31:00,
2013-02-19 17:01:00,60.0,58.0,-100.00,NNE,23,0.0,0.0,93,0.00,,,0.49,0.000000,,2013-02-20 03:01:00,
2013-02-19 17:12:00,60.0,58.0,-100.00,NNE,23,0.0,0.0,93,0.00,,,0.49,0.000000,,2013-02-20 03:12:00,
2013-02-19 17:21:00,60.0,58.0,-100.00,NNE,23,0.0,0.0,93,0.00,,,0.49,0.000000,,2013-02-20 03:21:00,
2013-02-19 17:32:00,60.0,58.0,-100.00,NNE,23,0.0,0.0,93,0.00,,,0.49,0.000000,,2013-02-20 03:32:00,
2013-02-19 18:01:00,60.0,59.0,-100.00,NNE,17,0.0,0.0,95,0.00,,,0.49,0.000000,,2013-02-20 04:01:00,
2013-02-19 18:11:00,60.0,59.0,-100.00,NNE,17,0.0,0.0,95,0.00,,,0.49,0.000000,,2013-02-20 04:11:00,
2013-02-19 18:21:00,60.0,59.0,-100.00,NNE,17,0.0,0.0,95,0.00,,,0.49,0.000000,,2013-02-20 04:21:00,
2013-02-19 18:31:00,60.0,59.0,-100.00,NNE,17,0.0,0.0,95,0.00,,,0.49,0.000000,,2013-02-20 04:31:00,
2013-02-19 19:02:00,59.0,57.0,-100.00,NNE,14,0.0,0.0,93,0.00,,,0.49,0.000000,,2013-02-20 05:02:00,
2013-02-19 19:12:00,59.0,57.0,-100.00,NNE,14,0.0,0.0,93,0.00,,,0.49,0.000000,,2013-02-20 05:12:00,
2013-02-19 19:22:00,59.0,57.0,-100.00,NNE,14,0.0,0.0,93,0.00,,,0.49,0.000000,,2013-02-20 05:22:00,
2013-02-19 19:32:00,59.0,57.0,-100.00,NNE,14,0.0,0.0,93,0.00,,,0.49,0.000000,,2013-02-20 05:32:00,
2013-02-19 20:01:00,59.0,58.0,-100.00,NNE,17,0.0,0.0,97,0.00,,,0.49,0.000000,,2013-02-20 06:01:00,
2013-02-19 20:11:00,59.0,58.0,-100.00,NNE,17,0.0,0.0,97,0.00,,,0.49,0.000000,,2013-02-20 06:11:00,
2013-02-19 20:21:00,59.0,58.0,-100.00,NNE,17,0.0,0.0,97,0.00,,,0.49,0.000000,,2013-02-20 06:21:00,
2013-02-19 20:31:00,59.0,58.0,-100.00,NNE,17,0.0,0.0,97,0.00,,,0.49,0.000000,,2013-02-20 06:31:00,
2013-02-19 21:01:00,59.0,58.0,-100.00,NNE,24,0.0,0.0,98,0.02,,,0.51,0.000000,,2013-02-20 07:01:00,
2013-02-19 21:11:00,59.0,58.0,-100.00,NNE,24,0.0,0.0,98,0.02,,,0.51,0.000000,,2013-02-20 07:11:00,
2013-02-19 21:21:00,59.0,58.0,-100.00,NNE,24,0.0,0.0,98,0.02,,,0.51,0.000000,,2013-02-20 07:21:00,
2013-02-19 21:31:00,59.0,58.0,-100.00,NNE,24,0.0,0.0,98,0.02,,,0.51,0.000000,,2013-02-20 07:31:00,
2013-02-19 22:05:00,60.0,59.0,-100.00,NNE,24,0.0,0.0,98,0.02,,,0.51,0.000000,,2013-02-20 08:05:00,
2013-02-19 22:11:00,60.0,59.0,-100.00,NNE,24,0.0,0.0,98,0.02,,,0.51,0.000000,,2013-02-20 08:11:00,
2013-02-19 22:21:00,60.0,59.0,-100.00,NNE,24,0.0,0.0,98,0.02,,,0.51,0.000000,,2013-02-20 08:21:00,
2013-02-19 22:31:00,60.0,59.0,-100.00,NNE,24,0.0,0.0,98,0.02,,,0.51,0.000000,,2013-02-20 08:31:00,
2013-02-19 23:01:00,60.0,60.0,-100.00,NNE,26,0.0,0.0,99,0.00,,,0.51,0.000000,,2013-02-20 09:01:00,
2013-02-19 23:11:00,60.0,60.0,-100.00,NNE,26,0.0,0.0,99,0.00,,,0.51,0.000000,,2013-02-20 09:11:00,
2013-02-19 23:21:00,60.0,60.0,-100.00,NNE,26,0.0,0.0,99,0.00,,,0.51,0.000000,,2013-02-20 09:21:00,
2013-02-19 23:31:00,60.0,60.0,-100.00,NNE,26,0.0,0.0,99,0.00,,,0.51,0.000000,,2013-02-20 09:31:00,